sensor_id;sensor_type;location;lat;lon;timestamp;pressure;altitude;pressure_sealevel;temperature;humidity
7180;BME280;3631;42.152;24.756;2024-03-22T00:01:45;86199.66;;;-144.30;81.04
7180;BME280;3631;42.152;24.756;2024-03-22T00:04:11;86016.72;;;-144.30;82.01
7180;BME280;3631;42.152;24.756;2024-03-22T00:06:38;86199.66;;;-144.30;82.11
7180;BME280;3631;42.152;24.756;2024-03-22T00:09:04;86203.63;;;-144.30;82.11
7180;BME280;3631;42.152;24.756;2024-03-22T00:11:31;86215.56;;;-144.30;81.90
7180;BME280;3631;42.152;24.756;2024-03-22T00:13:57;86219.53;;;-144.30;82.59
7180;BME280;3631;42.152;24.756;2024-03-22T00:16:25;86267.25;;;-144.30;83.09
7180;BME280;3631;42.152;24.756;2024-03-22T00:18:51;86227.50;;;-144.30;84.07
7180;BME280;3631;42.152;24.756;2024-03-22T00:21:18;86237.44;;;-144.30;84.70
7180;BME280;3631;42.152;24.756;2024-03-22T00:23:45;86179.78;;;-144.30;84.79
7180;BME280;3631;42.152;24.756;2024-03-22T00:26:12;86203.63;;;-144.30;84.18
7180;BME280;3631;42.152;24.756;2024-03-22T00:28:38;86207.59;;;-144.30;84.58
7180;BME280;3631;42.152;24.756;2024-03-22T00:31:05;86203.63;;;-144.30;85.13
7180;BME280;3631;42.152;24.756;2024-03-22T00:33:32;86217.56;;;-144.30;84.36
7180;BME280;3631;42.152;24.756;2024-03-22T00:35:59;86219.53;;;-144.30;83.91
7180;BME280;3631;42.152;24.756;2024-03-22T00:38:25;86219.53;;;-144.30;83.52
7180;BME280;3631;42.152;24.756;2024-03-22T00:40:52;86207.59;;;-144.30;82.32
7180;BME280;3631;42.152;24.756;2024-03-22T00:43:19;86215.56;;;-144.30;81.49
7180;BME280;3631;42.152;24.756;2024-03-22T00:45:46;86237.44;;;-144.30;81.17
7180;BME280;3631;42.152;24.756;2024-03-22T00:48:12;86245.38;;;-144.30;80.56
7180;BME280;3631;42.152;24.756;2024-03-22T00:50:40;86215.56;;;-144.30;81.85
7180;BME280;3631;42.152;24.756;2024-03-22T00:53:06;86219.53;;;-144.30;81.75
7180;BME280;3631;42.152;24.756;2024-03-22T00:55:35;86167.84;;;-144.30;81.79
7180;BME280;3631;42.152;24.756;2024-03-22T00:58:01;86223.50;;;-144.30;82.28
7180;BME280;3631;42.152;24.756;2024-03-22T01:00:28;86223.50;;;-144.30;82.10
7180;BME280;3631;42.152;24.756;2024-03-22T01:02:54;86275.22;;;-144.30;82.88
7180;BME280;3631;42.152;24.756;2024-03-22T01:05:21;86251.34;;;-144.30;83.15
7180;BME280;3631;42.152;24.756;2024-03-22T01:07:48;86223.50;;;-144.30;82.98
7180;BME280;3631;42.152;24.756;2024-03-22T01:10:15;86191.69;;;-144.30;83.46
7180;BME280;3631;42.152;24.756;2024-03-22T01:12:41;86227.50;;;-144.30;83.33
7180;BME280;3631;42.152;24.756;2024-03-22T01:15:08;86211.59;;;-144.30;82.95
7180;BME280;3631;42.152;24.756;2024-03-22T01:17:34;86235.44;;;-144.30;83.31
7180;BME280;3631;42.152;24.756;2024-03-22T01:20:01;86231.47;;;-144.30;83.22
7180;BME280;3631;42.152;24.756;2024-03-22T01:22:27;86197.66;;;-144.30;83.61
7180;BME280;3631;42.152;24.756;2024-03-22T01:24:55;86209.59;;;-144.30;83.34
7180;BME280;3631;42.152;24.756;2024-03-22T01:27:21;86235.44;;;-144.30;83.90
7180;BME280;3631;42.152;24.756;2024-03-22T01:29:48;86215.56;;;-144.30;84.35
7180;BME280;3631;42.152;24.756;2024-03-22T01:32:14;86207.59;;;-144.30;84.71
7180;BME280;3631;42.152;24.756;2024-03-22T01:34:41;86247.38;;;-144.30;84.60
7180;BME280;3631;42.152;24.756;2024-03-22T01:37:07;86211.59;;;-144.30;84.23
7180;BME280;3631;42.152;24.756;2024-03-22T01:39:34;86231.47;;;-144.30;84.75
7180;BME280;3631;42.152;24.756;2024-03-22T01:42:02;86185.72;;;-144.30;83.91
7180;BME280;3631;42.152;24.756;2024-03-22T01:44:31;86193.69;;;-144.30;83.69
7180;BME280;3631;42.152;24.756;2024-03-22T01:46:58;86191.69;;;-144.30;83.51
7180;BME280;3631;42.152;24.756;2024-03-22T01:49:25;86197.66;;;-144.30;83.13
7180;BME280;3631;42.152;24.756;2024-03-22T01:51:52;86225.50;;;-144.30;83.08
7180;BME280;3631;42.152;24.756;2024-03-22T01:54:20;86257.31;;;-144.30;82.76
7180;BME280;3631;42.152;24.756;2024-03-22T01:56:46;86211.59;;;-144.30;83.05
7180;BME280;3631;42.152;24.756;2024-03-22T01:59:15;86227.50;;;-144.30;83.25
7180;BME280;3631;42.152;24.756;2024-03-22T02:01:42;86247.38;;;-144.30;83.79
7180;BME280;3631;42.152;24.756;2024-03-22T02:04:09;86219.53;;;-144.30;83.53
7180;BME280;3631;42.152;24.756;2024-03-22T02:06:35;86207.59;;;-144.30;83.98
7180;BME280;3631;42.152;24.756;2024-03-22T02:09:02;86161.88;;;-144.30;84.76
7180;BME280;3631;42.152;24.756;2024-03-22T02:11:30;86247.38;;;-144.30;86.03
7180;BME280;3631;42.152;24.756;2024-03-22T02:13:57;86279.19;;;-144.30;86.99
7180;BME280;3631;42.152;24.756;2024-03-22T02:16:25;86237.44;;;-144.30;87.33
7180;BME280;3631;42.152;24.756;2024-03-22T02:18:52;86275.22;;;-144.30;87.37
7180;BME280;3631;42.152;24.756;2024-03-22T02:21:17;86239.44;;;-144.30;87.76
7180;BME280;3631;42.152;24.756;2024-03-22T02:23:46;86275.22;;;-144.30;88.01
7180;BME280;3631;42.152;24.756;2024-03-22T02:26:12;86261.28;;;-144.30;87.71
7180;BME280;3631;42.152;24.756;2024-03-22T02:28:39;86291.13;;;-144.30;87.41
7180;BME280;3631;42.152;24.756;2024-03-22T02:31:05;86253.34;;;-144.30;87.20
7180;BME280;3631;42.152;24.756;2024-03-22T02:33:32;86219.53;;;-144.30;87.05
7180;BME280;3631;42.152;24.756;2024-03-22T02:35:58;86277.19;;;-144.30;87.29
7180;BME280;3631;42.152;24.756;2024-03-22T02:38:25;86261.28;;;-144.30;86.60
7180;BME280;3631;42.152;24.756;2024-03-22T02:40:52;86265.28;;;-144.30;86.39
7180;BME280;3631;42.152;24.756;2024-03-22T02:43:19;86231.47;;;-144.30;86.04
7180;BME280;3631;42.152;24.756;2024-03-22T02:45:46;86229.47;;;-144.30;85.68
7180;BME280;3631;42.152;24.756;2024-03-22T02:48:13;86275.22;;;-144.30;85.82
7180;BME280;3631;42.152;24.756;2024-03-22T02:50:39;86259.31;;;-144.30;86.71
7180;BME280;3631;42.152;24.756;2024-03-22T02:53:06;86251.34;;;-144.30;86.03
7180;BME280;3631;42.152;24.756;2024-03-22T02:55:36;86275.22;;;-144.30;86.05
7180;BME280;3631;42.152;24.756;2024-03-22T02:58:06;86255.34;;;-144.30;87.17
7180;BME280;3631;42.152;24.756;2024-03-22T03:00:35;86259.31;;;-144.30;86.75
7180;BME280;3631;42.152;24.756;2024-03-22T03:03:03;85768.19;;;-144.30;86.42
7180;BME280;3631;42.152;24.756;2024-03-22T03:05:29;86271.25;;;-144.30;85.44
7180;BME280;3631;42.152;24.756;2024-03-22T03:07:55;86237.44;;;-144.30;85.32
7180;BME280;3631;42.152;24.756;2024-03-22T03:10:22;86257.31;;;-144.30;85.29
7180;BME280;3631;42.152;24.756;2024-03-22T03:12:48;86219.53;;;-144.30;85.28
7180;BME280;3631;42.152;24.756;2024-03-22T03:15:17;86229.47;;;-144.30;85.47
7180;BME280;3631;42.152;24.756;2024-03-22T03:17:43;86273.22;;;-144.30;85.31
7180;BME280;3631;42.152;24.756;2024-03-22T03:20:11;86235.44;;;-144.30;85.38
7180;BME280;3631;42.152;24.756;2024-03-22T03:22:39;86251.34;;;-144.30;85.00
7180;BME280;3631;42.152;24.756;2024-03-22T03:25:06;86239.44;;;-144.30;85.08
7180;BME280;3631;42.152;24.756;2024-03-22T03:27:33;86279.19;;;-144.30;85.54
7180;BME280;3631;42.152;24.756;2024-03-22T03:30:00;86227.50;;;-144.30;85.29
7180;BME280;3631;42.152;24.756;2024-03-22T03:32:28;86231.47;;;-144.30;85.53
7180;BME280;3631;42.152;24.756;2024-03-22T03:34:55;86287.16;;;-144.30;85.55
7180;BME280;3631;42.152;24.756;2024-03-22T03:37:21;86259.31;;;-144.30;86.42
7180;BME280;3631;42.152;24.756;2024-03-22T03:39:48;86267.25;;;-144.30;87.07
7180;BME280;3631;42.152;24.756;2024-03-22T03:42:13;86291.13;;;-144.30;87.36
7180;BME280;3631;42.152;24.756;2024-03-22T03:44:40;86259.31;;;-144.30;87.16
7180;BME280;3631;42.152;24.756;2024-03-22T03:47:07;86273.22;;;-144.30;86.86
7180;BME280;3631;42.152;24.756;2024-03-22T03:49:35;86251.34;;;-144.30;86.77
7180;BME280;3631;42.152;24.756;2024-03-22T03:52:01;86330.88;;;-144.30;87.51
7180;BME280;3631;42.152;24.756;2024-03-22T03:54:28;86291.13;;;-144.30;88.16
7180;BME280;3631;42.152;24.756;2024-03-22T03:56:54;86320.94;;;-144.30;88.27
7180;BME280;3631;42.152;24.756;2024-03-22T03:59:21;86283.16;;;-144.30;88.05
7180;BME280;3631;42.152;24.756;2024-03-22T04:01:47;86251.34;;;-144.30;87.97
7180;BME280;3631;42.152;24.756;2024-03-22T04:04:14;86303.06;;;-144.30;87.65
7180;BME280;3631;42.152;24.756;2024-03-22T04:06:43;86326.91;;;-144.30;87.38
7180;BME280;3631;42.152;24.756;2024-03-22T04:09:10;86314.97;;;-144.30;87.33
7180;BME280;3631;42.152;24.756;2024-03-22T04:11:36;86307.03;;;-144.30;87.21
7180;BME280;3631;42.152;24.756;2024-03-22T04:14:03;86072.41;;;-144.30;87.42
7180;BME280;3631;42.152;24.756;2024-03-22T04:16:29;86307.03;;;-144.30;86.77
7180;BME280;3631;42.152;24.756;2024-03-22T04:18:56;86291.13;;;-144.30;85.43
7180;BME280;3631;42.152;24.756;2024-03-22T04:21:22;86316.97;;;-144.30;84.99
7180;BME280;3631;42.152;24.756;2024-03-22T04:23:51;86318.97;;;-144.30;86.66
7180;BME280;3631;42.152;24.756;2024-03-22T04:26:17;86287.16;;;-144.30;86.76
7180;BME280;3631;42.152;24.756;2024-03-22T04:28:43;86279.19;;;-144.30;87.65
7180;BME280;3631;42.152;24.756;2024-03-22T04:31:10;86338.84;;;-144.30;87.50
7180;BME280;3631;42.152;24.756;2024-03-22T04:33:37;86247.38;;;-144.30;87.90
7180;BME280;3631;42.152;24.756;2024-03-22T04:36:04;86358.72;;;-144.30;87.58
7180;BME280;3631;42.152;24.756;2024-03-22T04:38:31;86307.03;;;-144.30;87.54
7180;BME280;3631;42.152;24.756;2024-03-22T04:41:00;86346.81;;;-144.30;86.80
7180;BME280;3631;42.152;24.756;2024-03-22T04:43:28;86283.16;;;-144.30;86.39
7180;BME280;3631;42.152;24.756;2024-03-22T04:45:55;86314.97;;;-144.30;86.35
7180;BME280;3631;42.152;24.756;2024-03-22T04:48:23;86334.88;;;-144.30;86.54
7180;BME280;3631;42.152;24.756;2024-03-22T04:50:50;86291.13;;;-144.30;86.23
7180;BME280;3631;42.152;24.756;2024-03-22T04:53:17;86322.94;;;-144.30;85.79
7180;BME280;3631;42.152;24.756;2024-03-22T04:55:43;86348.78;;;-144.30;84.60
7180;BME280;3631;42.152;24.756;2024-03-22T04:58:13;86295.09;;;-144.30;84.07
7180;BME280;3631;42.152;24.756;2024-03-22T05:00:39;86283.16;;;-144.30;83.09
7180;BME280;3631;42.152;24.756;2024-03-22T05:03:06;86313.00;;;-144.30;82.37
7180;BME280;3631;42.152;24.756;2024-03-22T05:05:33;86303.06;;;-144.30;80.74
7180;BME280;3631;42.152;24.756;2024-03-22T05:08:01;86277.19;;;-144.30;80.36
7180;BME280;3631;42.152;24.756;2024-03-22T05:10:27;86305.03;;;-144.30;79.85
7180;BME280;3631;42.152;24.756;2024-03-22T05:12:54;86283.16;;;-144.30;79.44
7180;BME280;3631;42.152;24.756;2024-03-22T05:15:21;86287.16;;;-144.30;78.91
7180;BME280;3631;42.152;24.756;2024-03-22T05:17:48;86279.19;;;-144.30;78.09
7180;BME280;3631;42.152;24.756;2024-03-22T05:20:15;86243.41;;;-144.30;76.39
7180;BME280;3631;42.152;24.756;2024-03-22T05:22:42;86259.31;;;-144.30;76.20
7180;BME280;3631;42.152;24.756;2024-03-22T05:25:08;86247.38;;;-144.30;75.00
7180;BME280;3631;42.152;24.756;2024-03-22T05:27:35;86211.59;;;-144.30;72.95
7180;BME280;3631;42.152;24.756;2024-03-22T05:30:01;86128.06;;;-144.30;68.97
7180;BME280;3631;42.152;24.756;2024-03-22T05:32:30;86020.69;;;-144.30;62.83
7180;BME280;3631;42.152;24.756;2024-03-22T05:34:56;85897.44;;;-144.30;56.61
7180;BME280;3631;42.152;24.756;2024-03-22T05:37:23;85788.09;;;-144.30;52.48
7180;BME280;3631;42.152;24.756;2024-03-22T05:39:49;85706.56;;;-144.30;49.02
7180;BME280;3631;42.152;24.756;2024-03-22T05:42:16;85611.13;;;-144.30;46.41
7180;BME280;3631;42.152;24.756;2024-03-22T05:44:43;85529.63;;;-144.30;43.33
7180;BME280;3631;42.152;24.756;2024-03-22T05:47:11;85491.84;;;-144.30;41.37
7180;BME280;3631;42.152;24.756;2024-03-22T05:49:38;85491.84;;;-144.30;40.70
7180;BME280;3631;42.152;24.756;2024-03-22T05:52:05;85460.03;;;-144.30;41.33
7180;BME280;3631;42.152;24.756;2024-03-22T05:54:31;85511.75;;;-144.30;41.95
7180;BME280;3631;42.152;24.756;2024-03-22T05:56:58;85454.09;;;-144.30;41.28
7180;BME280;3631;42.152;24.756;2024-03-22T05:59:24;85356.69;;;-144.30;40.38
7180;BME280;3631;42.152;24.756;2024-03-22T06:01:51;85384.50;;;-144.30;39.36
7180;BME280;3631;42.152;24.756;2024-03-22T06:04:17;85356.69;;;-144.30;38.66
7180;BME280;3631;42.152;24.756;2024-03-22T06:06:45;85261.25;;;-144.30;38.09
7180;BME280;3631;42.152;24.756;2024-03-22T06:09:11;85165.84;;;-144.30;36.97
7180;BME280;3631;42.152;24.756;2024-03-22T06:11:38;85104.22;;;-144.30;36.02
7180;BME280;3631;42.152;24.756;2024-03-22T06:14:05;84975.00;;;-144.30;35.10
7180;BME280;3631;42.152;24.756;2024-03-22T06:16:32;84891.53;;;-144.30;34.06
7180;BME280;3631;42.152;24.756;2024-03-22T06:18:58;84778.25;;;-144.30;33.23
7180;BME280;3631;42.152;24.756;2024-03-22T06:21:24;84655.00;;;-144.30;32.27
7180;BME280;3631;42.152;24.756;2024-03-22T06:23:52;84668.94;;;-144.30;32.29
7180;BME280;3631;42.152;24.756;2024-03-22T06:26:19;84571.53;;;-144.30;31.93
7180;BME280;3631;42.152;24.756;2024-03-22T06:28:45;84519.88;;;-144.30;31.37
7180;BME280;3631;42.152;24.756;2024-03-22T06:31:12;84283.38;;;-144.30;30.79
7180;BME280;3631;42.152;24.756;2024-03-22T06:33:38;83929.66;;;-144.30;29.72
7180;BME280;3631;42.152;24.756;2024-03-22T06:36:05;84275.41;;;-144.30;29.70
7180;BME280;3631;42.152;24.756;2024-03-22T06:38:31;84168.09;;;-144.30;28.90
7180;BME280;3631;42.152;24.756;2024-03-22T06:40:59;84170.09;;;-144.30;28.89
7180;BME280;3631;42.152;24.756;2024-03-22T06:43:25;84116.44;;;-144.30;28.58
7180;BME280;3631;42.152;24.756;2024-03-22T06:45:52;84100.53;;;-144.30;28.58
7180;BME280;3631;42.152;24.756;2024-03-22T06:48:18;84076.69;;;-144.30;28.22
7180;BME280;3631;42.152;24.756;2024-03-22T06:50:45;84160.16;;;-144.30;28.66
7180;BME280;3631;42.152;24.756;2024-03-22T06:53:11;84134.31;;;-144.30;28.57
7180;BME280;3631;42.152;24.756;2024-03-22T06:55:38;84005.16;;;-144.30;27.69
7180;BME280;3631;42.152;24.756;2024-03-22T06:58:06;83947.53;;;-144.30;27.36
7180;BME280;3631;42.152;24.756;2024-03-22T07:00:33;83911.75;;;-144.30;26.99
7180;BME280;3631;42.152;24.756;2024-03-22T07:03:00;83883.94;;;-144.30;27.11
7180;BME280;3631;42.152;24.756;2024-03-22T07:05:28;83788.56;;;-144.30;26.97
7180;BME280;3631;42.152;24.756;2024-03-22T07:07:54;83842.22;;;-144.30;26.66
7180;BME280;3631;42.152;24.756;2024-03-22T07:10:23;83790.56;;;-144.30;26.59
7180;BME280;3631;42.152;24.756;2024-03-22T07:12:53;83824.31;;;-144.30;26.55
7180;BME280;3631;42.152;24.756;2024-03-22T07:15:23;83734.91;;;-144.30;26.45
7180;BME280;3631;42.152;24.756;2024-03-22T07:17:49;83659.41;;;-144.30;26.40
7180;BME280;3631;42.152;24.756;2024-03-22T07:20:16;83693.19;;;-144.30;26.26
7180;BME280;3631;42.152;24.756;2024-03-22T07:22:42;83653.44;;;-144.30;26.38
7180;BME280;3631;42.152;24.756;2024-03-22T07:25:09;83395.16;;;-144.30;25.55
7180;BME280;3631;42.152;24.756;2024-03-22T07:27:35;83329.59;;;-144.30;25.15
7180;BME280;3631;42.152;24.756;2024-03-22T07:30:03;83230.25;;;-144.30;25.04
7180;BME280;3631;42.152;24.756;2024-03-22T07:32:31;83039.53;;;-144.30;24.54
7180;BME280;3631;42.152;24.756;2024-03-22T07:34:58;83107.09;;;-144.30;24.35
7180;BME280;3631;42.152;24.756;2024-03-22T07:37:25;82999.81;;;-144.30;24.08
7180;BME280;3631;42.152;24.756;2024-03-22T07:39:51;82811.09;;;-144.30;23.89
7180;BME280;3631;42.152;24.756;2024-03-22T07:42:18;82602.53;;;-144.30;23.42
7180;BME280;3631;42.152;24.756;2024-03-22T07:47:18;82693.88;;;-144.30;23.11
7180;BME280;3631;42.152;24.756;2024-03-22T07:49:45;82729.66;;;-144.30;23.26
7180;BME280;3631;42.152;24.756;2024-03-22T07:52:11;82968.03;;;-144.30;23.84
7180;BME280;3631;42.152;24.756;2024-03-22T07:54:38;83148.81;;;-144.30;24.19
7180;BME280;3631;42.152;24.756;2024-03-22T07:57:04;83081.25;;;-144.30;24.16
7180;BME280;3631;42.152;24.756;2024-03-22T07:59:32;83091.19;;;-144.30;24.34
7180;BME280;3631;42.152;24.756;2024-03-22T08:01:58;83097.16;;;-144.30;24.26
7180;BME280;3631;42.152;24.756;2024-03-22T08:04:26;83196.47;;;-144.30;24.45
7180;BME280;3631;42.152;24.756;2024-03-22T08:06:53;83377.28;;;-144.30;24.75
7180;BME280;3631;42.152;24.756;2024-03-22T08:09:20;83719.03;;;-144.30;25.68
7180;BME280;3631;42.152;24.756;2024-03-22T08:11:46;84223.75;;;-144.30;27.64
7180;BME280;3631;42.152;24.756;2024-03-22T08:14:13;84547.69;;;-144.30;29.70
7180;BME280;3631;42.152;24.756;2024-03-22T08:16:39;84827.94;;;-144.30;31.13
7180;BME280;3631;42.152;24.756;2024-03-22T08:19:06;84915.38;;;-144.30;31.91
7180;BME280;3631;42.152;24.756;2024-03-22T08:21:33;84955.13;;;-144.30;32.34
7180;BME280;3631;42.152;24.756;2024-03-22T08:24:00;85034.66;;;-144.30;32.76
7180;BME280;3631;42.152;24.756;2024-03-22T08:26:26;85050.53;;;-144.30;33.31
7180;BME280;3631;42.152;24.756;2024-03-22T08:28:53;85189.69;;;-144.30;34.44
7180;BME280;3631;42.152;24.756;2024-03-22T08:31:19;85179.75;;;-144.30;34.69
7180;BME280;3631;42.152;24.756;2024-03-22T08:33:50;85217.53;;;-144.30;34.98
7180;BME280;3631;42.152;24.756;2024-03-22T08:36:16;85157.88;;;-144.30;35.16
7180;BME280;3631;42.152;24.756;2024-03-22T08:38:45;85245.34;;;-144.30;35.38
7180;BME280;3631;42.152;24.756;2024-03-22T08:41:11;85297.03;;;-144.30;36.34
7180;BME280;3631;42.152;24.756;2024-03-22T08:43:38;85340.78;;;-144.30;36.52
7180;BME280;3631;42.152;24.756;2024-03-22T08:46:04;85322.88;;;-144.30;36.43
7180;BME280;3631;42.152;24.756;2024-03-22T08:48:30;85368.59;;;-144.30;37.21
7180;BME280;3631;42.152;24.756;2024-03-22T08:50:56;85398.41;;;-144.30;37.54
7180;BME280;3631;42.152;24.756;2024-03-22T08:53:23;85364.63;;;-144.30;37.71
7180;BME280;3631;42.152;24.756;2024-03-22T08:55:51;85468.00;;;-144.30;38.11
7180;BME280;3631;42.152;24.756;2024-03-22T08:58:18;85464.03;;;-144.30;38.15
7180;BME280;3631;42.152;24.756;2024-03-22T09:00:44;85328.84;;;-144.30;38.30
7180;BME280;3631;42.152;24.756;2024-03-22T09:03:11;85519.69;;;-144.30;38.49
7180;BME280;3631;42.152;24.756;2024-03-22T09:05:37;85509.75;;;-144.30;38.37
7180;BME280;3631;42.152;24.756;2024-03-22T09:08:04;85491.84;;;-144.30;37.61
7180;BME280;3631;42.152;24.756;2024-03-22T09:10:30;85511.75;;;-144.30;37.83
7180;BME280;3631;42.152;24.756;2024-03-22T09:12:59;85432.22;;;-144.30;38.27
7180;BME280;3631;42.152;24.756;2024-03-22T09:15:25;85408.34;;;-144.30;37.11
7180;BME280;3631;42.152;24.756;2024-03-22T09:17:52;85372.56;;;-144.30;36.93
7180;BME280;3631;42.152;24.756;2024-03-22T09:20:18;85378.53;;;-144.30;35.95
7180;BME280;3631;42.152;24.756;2024-03-22T09:22:45;85406.38;;;-144.30;34.61
7180;BME280;3631;42.152;24.756;2024-03-22T09:25:12;85400.41;;;-144.30;35.07
7180;BME280;3631;42.152;24.756;2024-03-22T09:27:38;85382.53;;;-144.30;34.78
7180;BME280;3631;42.152;24.756;2024-03-22T09:30:07;85372.56;;;-144.30;34.66
7180;BME280;3631;42.152;24.756;2024-03-22T09:32:34;85376.56;;;-144.30;34.75
7180;BME280;3631;42.152;24.756;2024-03-22T09:35:01;85392.47;;;-144.30;35.15
7180;BME280;3631;42.152;24.756;2024-03-22T09:37:27;85400.41;;;-144.30;35.15
7180;BME280;3631;42.152;24.756;2024-03-22T09:39:54;85384.50;;;-144.30;35.06
7180;BME280;3631;42.152;24.756;2024-03-22T09:42:22;86450.19;;;-144.30;35.78
7180;BME280;3631;42.152;24.756;2024-03-22T09:44:50;85350.72;;;-144.30;34.71
7180;BME280;3631;42.152;24.756;2024-03-22T09:47:18;85370.59;;;-144.30;34.08
7180;BME280;3631;42.152;24.756;2024-03-22T09:49:46;85386.50;;;-144.30;34.10
7180;BME280;3631;42.152;24.756;2024-03-22T09:52:14;85354.69;;;-144.30;34.04
7180;BME280;3631;42.152;24.756;2024-03-22T09:54:43;85334.81;;;-144.30;33.70
7180;BME280;3631;42.152;24.756;2024-03-22T09:57:13;85340.78;;;-144.30;33.09
7180;BME280;3631;42.152;24.756;2024-03-22T09:59:41;85293.06;;;-144.30;32.85
7180;BME280;3631;42.152;24.756;2024-03-22T10:02:10;85281.13;;;-144.30;32.58
7180;BME280;3631;42.152;24.756;2024-03-22T10:04:40;85241.38;;;-144.30;32.25
7180;BME280;3631;42.152;24.756;2024-03-22T10:07:06;85261.25;;;-144.30;32.95
7180;BME280;3631;42.152;24.756;2024-03-22T10:09:34;85259.28;;;-144.30;32.94
7180;BME280;3631;42.152;24.756;2024-03-22T10:12:00;85257.28;;;-144.30;32.85
7180;BME280;3631;42.152;24.756;2024-03-22T10:14:28;85255.28;;;-144.30;32.72
7180;BME280;3631;42.152;24.756;2024-03-22T10:16:55;85285.09;;;-144.30;32.46
7180;BME280;3631;42.152;24.756;2024-03-22T10:19:22;85257.28;;;-144.30;32.53
7180;BME280;3631;42.152;24.756;2024-03-22T10:22:00;85348.72;;;-144.30;32.58
7180;BME280;3631;42.152;24.756;2024-03-22T10:24:27;85275.16;;;-144.30;32.66
7180;BME280;3631;42.152;24.756;2024-03-22T10:26:54;85251.31;;;-144.30;32.86
7180;BME280;3631;42.152;24.756;2024-03-22T10:29:21;85285.09;;;-144.30;33.39
7180;BME280;3631;42.152;24.756;2024-03-22T10:31:47;85342.75;;;-144.30;32.37
7180;BME280;3631;42.152;24.756;2024-03-22T10:34:16;85299.03;;;-144.30;32.61
7180;BME280;3631;42.152;24.756;2024-03-22T10:36:43;84965.06;;;-144.30;32.53
7180;BME280;3631;42.152;24.756;2024-03-22T10:39:15;85340.78;;;-144.30;32.96
7180;BME280;3631;42.152;24.756;2024-03-22T10:41:42;85356.69;;;-144.30;32.73
7180;BME280;3631;42.152;24.756;2024-03-22T10:44:09;85328.84;;;-144.30;32.86
7180;BME280;3631;42.152;24.756;2024-03-22T10:46:35;85297.03;;;-144.30;32.80
7180;BME280;3631;42.152;24.756;2024-03-22T10:49:02;85360.66;;;-144.30;33.04
7180;BME280;3631;42.152;24.756;2024-03-22T10:51:30;85332.81;;;-144.30;32.99
7180;BME280;3631;42.152;24.756;2024-03-22T10:54:01;85334.81;;;-144.30;32.71
7180;BME280;3631;42.152;24.756;2024-03-22T10:56:30;85295.06;;;-144.30;32.49
7180;BME280;3631;42.152;24.756;2024-03-22T10:59:02;85291.06;;;-144.30;32.27
7180;BME280;3631;42.152;24.756;2024-03-22T11:01:31;85213.53;;;-144.30;32.22
7180;BME280;3631;42.152;24.756;2024-03-22T11:04:05;85249.34;;;-144.30;32.21
7180;BME280;3631;42.152;24.756;2024-03-22T11:06:31;85263.25;;;-144.30;31.24
7180;BME280;3631;42.152;24.756;2024-03-22T11:08:59;85273.19;;;-144.30;31.37
7180;BME280;3631;42.152;24.756;2024-03-22T11:11:28;85273.19;;;-144.30;31.30
7180;BME280;3631;42.152;24.756;2024-03-22T11:13:56;85352.69;;;-144.30;31.53
7180;BME280;3631;42.152;24.756;2024-03-22T11:16:22;85334.81;;;-144.30;31.66
7180;BME280;3631;42.152;24.756;2024-03-22T11:18:49;85344.75;;;-144.30;31.47
7180;BME280;3631;42.152;24.756;2024-03-22T11:21:15;85903.41;;;-144.30;30.77
7180;BME280;3631;42.152;24.756;2024-03-22T11:23:45;85372.56;;;-144.30;30.87
7180;BME280;3631;42.152;24.756;2024-03-22T11:26:11;85360.66;;;-144.30;31.61
7180;BME280;3631;42.152;24.756;2024-03-22T11:28:38;85344.75;;;-144.30;31.43
7180;BME280;3631;42.152;24.756;2024-03-22T11:31:06;85380.53;;;-144.30;31.61
7180;BME280;3631;42.152;24.756;2024-03-22T11:33:33;85161.88;;;-144.30;31.71
7180;BME280;3631;42.152;24.756;2024-03-22T11:35:59;85297.03;;;-144.30;31.70
7180;BME280;3631;42.152;24.756;2024-03-22T11:38:26;85384.50;;;-144.30;31.35
7180;BME280;3631;42.152;24.756;2024-03-22T11:40:52;85360.66;;;-144.30;31.32
7180;BME280;3631;42.152;24.756;2024-03-22T11:43:21;85380.53;;;-144.30;30.64
7180;BME280;3631;42.152;24.756;2024-03-22T11:45:47;85370.59;;;-144.30;31.07
7180;BME280;3631;42.152;24.756;2024-03-22T11:48:15;85380.53;;;-144.30;30.76
7180;BME280;3631;42.152;24.756;2024-03-22T11:50:42;85378.53;;;-144.30;30.93
7180;BME280;3631;42.152;24.756;2024-03-22T11:53:09;85412.34;;;-144.30;31.24
7180;BME280;3631;42.152;24.756;2024-03-22T11:55:36;85396.44;;;-144.30;31.54
7180;BME280;3631;42.152;24.756;2024-03-22T11:58:03;85438.19;;;-144.30;31.16
7180;BME280;3631;42.152;24.756;2024-03-22T12:00:29;85412.34;;;-144.30;31.50
7180;BME280;3631;42.152;24.756;2024-03-22T12:02:56;85412.34;;;-144.30;31.59
7180;BME280;3631;42.152;24.756;2024-03-22T12:05:24;85456.06;;;-144.30;31.24
7180;BME280;3631;42.152;24.756;2024-03-22T12:07:52;85460.03;;;-144.30;31.49
7180;BME280;3631;42.152;24.756;2024-03-22T12:10:17;85404.38;;;-144.30;31.64
7180;BME280;3631;42.152;24.756;2024-03-22T12:12:44;85444.16;;;-144.30;31.83
7180;BME280;3631;42.152;24.756;2024-03-22T12:15:10;85442.16;;;-144.30;31.46
7180;BME280;3631;42.152;24.756;2024-03-22T12:17:37;85436.19;;;-144.30;31.66
7180;BME280;3631;42.152;24.756;2024-03-22T12:20:06;85406.38;;;-144.30;31.33
7180;BME280;3631;42.152;24.756;2024-03-22T12:22:35;85454.09;;;-144.30;31.53
7180;BME280;3631;42.152;24.756;2024-03-22T12:25:01;85460.03;;;-144.30;31.66
7180;BME280;3631;42.152;24.756;2024-03-22T12:27:29;85434.22;;;-144.30;31.72
7180;BME280;3631;42.152;24.756;2024-03-22T12:29:55;85312.94;;;-144.30;31.58
7180;BME280;3631;42.152;24.756;2024-03-22T12:32:22;85440.16;;;-144.30;31.76
7180;BME280;3631;42.152;24.756;2024-03-22T12:34:48;85384.50;;;-144.30;31.28
7180;BME280;3631;42.152;24.756;2024-03-22T12:37:15;85448.13;;;-144.30;31.05
7180;BME280;3631;42.152;24.756;2024-03-22T12:39:43;85400.41;;;-144.30;31.19
7180;BME280;3631;42.152;24.756;2024-03-22T12:42:10;85412.34;;;-144.30;31.08
7180;BME280;3631;42.152;24.756;2024-03-22T12:44:36;85468.00;;;-144.30;31.10
7180;BME280;3631;42.152;24.756;2024-03-22T12:47:03;85444.16;;;-144.30;31.01
7180;BME280;3631;42.152;24.756;2024-03-22T12:49:29;85454.09;;;-144.30;31.59
7180;BME280;3631;42.152;24.756;2024-03-22T12:51:56;85438.19;;;-144.30;31.66